sensor_id;sensor_type;location;lat;lon;timestamp;P1;durP1;ratioP1;P2;durP2;ratioP2
73515;SDS011;61763;51.416;5.442;2024-03-22T00:02:08;47.90;;;16.40;;
73515;SDS011;61763;51.416;5.442;2024-03-22T00:04:35;47.75;;;15.80;;
73515;SDS011;61763;51.416;5.442;2024-03-22T00:07:03;50.08;;;18.02;;
73515;SDS011;61763;51.416;5.442;2024-03-22T00:09:29;43.20;;;16.27;;
73515;SDS011;61763;51.416;5.442;2024-03-22T00:11:54;46.67;;;18.58;;
73515;SDS011;61763;51.416;5.442;2024-03-22T00:14:20;46.53;;;17.95;;
73515;SDS011;61763;51.416;5.442;2024-03-22T00:16:45;39.03;;;13.85;;
73515;SDS011;61763;51.416;5.442;2024-03-22T00:19:11;46.63;;;17.65;;
73515;SDS011;61763;51.416;5.442;2024-03-22T00:21:36;45.63;;;17.90;;
73515;SDS011;61763;51.416;5.442;2024-03-22T00:24:01;45.13;;;15.32;;
73515;SDS011;61763;51.416;5.442;2024-03-22T00:26:27;52.85;;;16.13;;
73515;SDS011;61763;51.416;5.442;2024-03-22T00:28:53;47.45;;;17.25;;
73515;SDS011;61763;51.416;5.442;2024-03-22T00:31:18;47.20;;;18.50;;
73515;SDS011;61763;51.416;5.442;2024-03-22T00:33:44;49.38;;;17.40;;
73515;SDS011;61763;51.416;5.442;2024-03-22T00:36:09;50.20;;;16.92;;
73515;SDS011;61763;51.416;5.442;2024-03-22T00:38:35;51.03;;;17.98;;
73515;SDS011;61763;51.416;5.442;2024-03-22T00:41:00;50.50;;;20.08;;
73515;SDS011;61763;51.416;5.442;2024-03-22T00:43:27;45.58;;;16.52;;
73515;SDS011;61763;51.416;5.442;2024-03-22T00:45:52;47.63;;;18.63;;
73515;SDS011;61763;51.416;5.442;2024-03-22T00:48:18;49.92;;;18.63;;
73515;SDS011;61763;51.416;5.442;2024-03-22T00:50:43;44.35;;;16.05;;
73515;SDS011;61763;51.416;5.442;2024-03-22T00:53:09;44.92;;;17.63;;
73515;SDS011;61763;51.416;5.442;2024-03-22T00:55:35;47.17;;;18.50;;
73515;SDS011;61763;51.416;5.442;2024-03-22T00:58:01;45.67;;;17.48;;
73515;SDS011;61763;51.416;5.442;2024-03-22T01:00:27;47.30;;;17.13;;
73515;SDS011;61763;51.416;5.442;2024-03-22T01:02:54;47.72;;;17.80;;
73515;SDS011;61763;51.416;5.442;2024-03-22T01:05:19;45.75;;;16.60;;
73515;SDS011;61763;51.416;5.442;2024-03-22T01:07:45;50.50;;;18.35;;
73515;SDS011;61763;51.416;5.442;2024-03-22T01:10:10;47.30;;;18.48;;
73515;SDS011;61763;51.416;5.442;2024-03-22T01:12:36;43.22;;;16.38;;
73515;SDS011;61763;51.416;5.442;2024-03-22T01:15:03;48.40;;;19.45;;
73515;SDS011;61763;51.416;5.442;2024-03-22T01:17:29;48.78;;;19.02;;
73515;SDS011;61763;51.416;5.442;2024-03-22T01:19:54;47.97;;;19.70;;
73515;SDS011;61763;51.416;5.442;2024-03-22T01:22:19;41.47;;;16.73;;
73515;SDS011;61763;51.416;5.442;2024-03-22T01:24:45;43.47;;;16.10;;
73515;SDS011;61763;51.416;5.442;2024-03-22T01:27:10;50.95;;;19.05;;
73515;SDS011;61763;51.416;5.442;2024-03-22T01:29:36;49.25;;;17.92;;
73515;SDS011;61763;51.416;5.442;2024-03-22T01:32:02;44.88;;;16.58;;
73515;SDS011;61763;51.416;5.442;2024-03-22T01:34:28;47.85;;;18.33;;
73515;SDS011;61763;51.416;5.442;2024-03-22T01:36:55;44.13;;;15.90;;
73515;SDS011;61763;51.416;5.442;2024-03-22T01:39:20;41.30;;;16.65;;
73515;SDS011;61763;51.416;5.442;2024-03-22T01:41:49;36.60;;;15.18;;
73515;SDS011;61763;51.416;5.442;2024-03-22T01:44:16;42.05;;;16.05;;
73515;SDS011;61763;51.416;5.442;2024-03-22T01:46:42;47.38;;;17.65;;
73515;SDS011;61763;51.416;5.442;2024-03-22T01:49:09;47.50;;;19.65;;
73515;SDS011;61763;51.416;5.442;2024-03-22T01:54:02;36.35;;;15.88;;
73515;SDS011;61763;51.416;5.442;2024-03-22T01:56:28;37.00;;;13.85;;
73515;SDS011;61763;51.416;5.442;2024-03-22T01:58:55;39.50;;;15.90;;
73515;SDS011;61763;51.416;5.442;2024-03-22T02:01:21;44.95;;;18.83;;
73515;SDS011;61763;51.416;5.442;2024-03-22T02:03:47;36.28;;;16.13;;
73515;SDS011;61763;51.416;5.442;2024-03-22T02:06:12;41.50;;;15.25;;
73515;SDS011;61763;51.416;5.442;2024-03-22T02:08:38;38.67;;;17.75;;
73515;SDS011;61763;51.416;5.442;2024-03-22T02:11:05;35.92;;;14.80;;
73515;SDS011;61763;51.416;5.442;2024-03-22T02:13:31;42.80;;;16.23;;
73515;SDS011;61763;51.416;5.442;2024-03-22T02:15:56;40.28;;;16.23;;
73515;SDS011;61763;51.416;5.442;2024-03-22T02:18:22;36.83;;;15.90;;
73515;SDS011;61763;51.416;5.442;2024-03-22T02:20:47;38.63;;;15.45;;
73515;SDS011;61763;51.416;5.442;2024-03-22T02:23:13;39.50;;;15.75;;
73515;SDS011;61763;51.416;5.442;2024-03-22T02:25:38;34.58;;;14.00;;
73515;SDS011;61763;51.416;5.442;2024-03-22T02:28:03;37.10;;;14.48;;
73515;SDS011;61763;51.416;5.442;2024-03-22T02:30:29;37.05;;;16.00;;
73515;SDS011;61763;51.416;5.442;2024-03-22T02:32:54;37.47;;;14.80;;
73515;SDS011;61763;51.416;5.442;2024-03-22T02:35:20;38.67;;;16.00;;
73515;SDS011;61763;51.416;5.442;2024-03-22T02:37:45;37.50;;;14.75;;
73515;SDS011;61763;51.416;5.442;2024-03-22T02:40:11;30.52;;;14.40;;
73515;SDS011;61763;51.416;5.442;2024-03-22T02:42:36;30.42;;;13.27;;
73515;SDS011;61763;51.416;5.442;2024-03-22T02:45:02;28.07;;;12.07;;
73515;SDS011;61763;51.416;5.442;2024-03-22T02:47:27;36.72;;;16.10;;
73515;SDS011;61763;51.416;5.442;2024-03-22T02:49:53;33.28;;;14.00;;
73515;SDS011;61763;51.416;5.442;2024-03-22T02:52:18;31.33;;;14.05;;
73515;SDS011;61763;51.416;5.442;2024-03-22T02:54:43;36.13;;;14.02;;
73515;SDS011;61763;51.416;5.442;2024-03-22T02:57:09;31.85;;;11.57;;
73515;SDS011;61763;51.416;5.442;2024-03-22T02:59:34;33.67;;;14.48;;
73515;SDS011;61763;51.416;5.442;2024-03-22T03:01:59;32.92;;;13.50;;
73515;SDS011;61763;51.416;5.442;2024-03-22T03:04:25;32.50;;;14.77;;
73515;SDS011;61763;51.416;5.442;2024-03-22T03:06:50;32.28;;;14.20;;
73515;SDS011;61763;51.416;5.442;2024-03-22T03:09:15;32.03;;;12.45;;
73515;SDS011;61763;51.416;5.442;2024-03-22T03:11:41;27.30;;;13.60;;
73515;SDS011;61763;51.416;5.442;2024-03-22T03:14:06;31.50;;;13.60;;
73515;SDS011;61763;51.416;5.442;2024-03-22T03:16:32;27.15;;;12.52;;
73515;SDS011;61763;51.416;5.442;2024-03-22T03:18:57;28.00;;;12.73;;
73515;SDS011;61763;51.416;5.442;2024-03-22T03:21:22;29.65;;;12.02;;
73515;SDS011;61763;51.416;5.442;2024-03-22T03:23:48;28.77;;;11.90;;
73515;SDS011;61763;51.416;5.442;2024-03-22T03:26:13;35.60;;;14.10;;
73515;SDS011;61763;51.416;5.442;2024-03-22T03:28:39;37.03;;;13.77;;
73515;SDS011;61763;51.416;5.442;2024-03-22T03:31:04;27.88;;;11.73;;
73515;SDS011;61763;51.416;5.442;2024-03-22T03:33:30;32.17;;;12.82;;
73515;SDS011;61763;51.416;5.442;2024-03-22T03:35:55;30.70;;;13.02;;
73515;SDS011;61763;51.416;5.442;2024-03-22T03:38:20;28.02;;;12.27;;
73515;SDS011;61763;51.416;5.442;2024-03-22T03:40:46;33.47;;;12.15;;
73515;SDS011;61763;51.416;5.442;2024-03-22T03:43:12;34.88;;;15.82;;
73515;SDS011;61763;51.416;5.442;2024-03-22T03:45:37;31.95;;;14.00;;
73515;SDS011;61763;51.416;5.442;2024-03-22T03:48:02;29.95;;;13.25;;
73515;SDS011;61763;51.416;5.442;2024-03-22T03:50:28;29.65;;;13.77;;
73515;SDS011;61763;51.416;5.442;2024-03-22T03:52:53;37.15;;;14.48;;
73515;SDS011;61763;51.416;5.442;2024-03-22T03:55:19;27.45;;;11.68;;
73515;SDS011;61763;51.416;5.442;2024-03-22T03:57:44;30.83;;;13.45;;
73515;SDS011;61763;51.416;5.442;2024-03-22T04:00:09;30.33;;;14.27;;
73515;SDS011;61763;51.416;5.442;2024-03-22T04:02:35;25.33;;;12.05;;
73515;SDS011;61763;51.416;5.442;2024-03-22T04:05:01;31.75;;;14.13;;
73515;SDS011;61763;51.416;5.442;2024-03-22T04:07:26;30.40;;;13.77;;
73515;SDS011;61763;51.416;5.442;2024-03-22T04:09:52;31.35;;;14.70;;
73515;SDS011;61763;51.416;5.442;2024-03-22T04:12:17;27.00;;;11.23;;
73515;SDS011;61763;51.416;5.442;2024-03-22T04:14:42;24.42;;;12.43;;
73515;SDS011;61763;51.416;5.442;2024-03-22T04:17:08;29.15;;;12.68;;
73515;SDS011;61763;51.416;5.442;2024-03-22T04:19:34;28.88;;;12.88;;
73515;SDS011;61763;51.416;5.442;2024-03-22T04:21:59;29.00;;;12.48;;
73515;SDS011;61763;51.416;5.442;2024-03-22T04:24:25;29.10;;;13.52;;
73515;SDS011;61763;51.416;5.442;2024-03-22T04:26:50;29.95;;;13.68;;
73515;SDS011;61763;51.416;5.442;2024-03-22T04:29:15;25.48;;;12.25;;
73515;SDS011;61763;51.416;5.442;2024-03-22T04:31:41;28.42;;;12.65;;
73515;SDS011;61763;51.416;5.442;2024-03-22T04:34:06;28.13;;;12.45;;
73515;SDS011;61763;51.416;5.442;2024-03-22T04:36:32;28.23;;;13.23;;
73515;SDS011;61763;51.416;5.442;2024-03-22T04:38:58;31.80;;;12.02;;
73515;SDS011;61763;51.416;5.442;2024-03-22T04:41:24;30.20;;;11.38;;
73515;SDS011;61763;51.416;5.442;2024-03-22T04:43:49;30.33;;;13.23;;
73515;SDS011;61763;51.416;5.442;2024-03-22T04:46:14;29.50;;;12.88;;
73515;SDS011;61763;51.416;5.442;2024-03-22T04:48:40;30.63;;;12.43;;
73515;SDS011;61763;51.416;5.442;2024-03-22T04:51:05;29.42;;;12.50;;
73515;SDS011;61763;51.416;5.442;2024-03-22T04:53:30;30.63;;;13.32;;
73515;SDS011;61763;51.416;5.442;2024-03-22T04:55:56;26.98;;;12.05;;
73515;SDS011;61763;51.416;5.442;2024-03-22T04:58:21;24.65;;;10.60;;
73515;SDS011;61763;51.416;5.442;2024-03-22T05:00:47;28.38;;;12.70;;
73515;SDS011;61763;51.416;5.442;2024-03-22T05:03:13;26.92;;;11.77;;
73515;SDS011;61763;51.416;5.442;2024-03-22T05:05:40;25.35;;;11.50;;
73515;SDS011;61763;51.416;5.442;2024-03-22T05:08:05;31.88;;;13.40;;
73515;SDS011;61763;51.416;5.442;2024-03-22T05:10:32;28.13;;;11.48;;
73515;SDS011;61763;51.416;5.442;2024-03-22T05:12:57;21.45;;;11.20;;
73515;SDS011;61763;51.416;5.442;2024-03-22T05:15:23;30.33;;;12.85;;
73515;SDS011;61763;51.416;5.442;2024-03-22T05:17:52;27.55;;;12.70;;
73515;SDS011;61763;51.416;5.442;2024-03-22T05:20:18;26.10;;;12.38;;
73515;SDS011;61763;51.416;5.442;2024-03-22T05:22:43;26.45;;;13.85;;
73515;SDS011;61763;51.416;5.442;2024-03-22T05:25:09;31.15;;;13.52;;
73515;SDS011;61763;51.416;5.442;2024-03-22T05:27:35;29.58;;;12.82;;
73515;SDS011;61763;51.416;5.442;2024-03-22T05:30:00;29.50;;;13.20;;
73515;SDS011;61763;51.416;5.442;2024-03-22T05:32:26;26.00;;;13.02;;
73515;SDS011;61763;51.416;5.442;2024-03-22T05:34:52;27.52;;;10.93;;
73515;SDS011;61763;51.416;5.442;2024-03-22T05:37:18;30.45;;;12.75;;
73515;SDS011;61763;51.416;5.442;2024-03-22T05:39:43;28.05;;;10.77;;
73515;SDS011;61763;51.416;5.442;2024-03-22T05:42:08;23.40;;;11.48;;
73515;SDS011;61763;51.416;5.442;2024-03-22T05:44:34;29.50;;;11.30;;
73515;SDS011;61763;51.416;5.442;2024-03-22T05:46:59;25.48;;;11.48;;
73515;SDS011;61763;51.416;5.442;2024-03-22T05:49:25;29.08;;;13.30;;
73515;SDS011;61763;51.416;5.442;2024-03-22T05:51:50;27.88;;;11.43;;
73515;SDS011;61763;51.416;5.442;2024-03-22T05:54:16;28.52;;;12.90;;
73515;SDS011;61763;51.416;5.442;2024-03-22T05:56:41;25.50;;;11.80;;
73515;SDS011;61763;51.416;5.442;2024-03-22T05:59:07;27.88;;;11.45;;
73515;SDS011;61763;51.416;5.442;2024-03-22T06:01:32;29.58;;;12.13;;
73515;SDS011;61763;51.416;5.442;2024-03-22T06:03:58;29.40;;;11.07;;
73515;SDS011;61763;51.416;5.442;2024-03-22T06:06:23;29.52;;;11.57;;
73515;SDS011;61763;51.416;5.442;2024-03-22T06:08:51;23.00;;;10.70;;
73515;SDS011;61763;51.416;5.442;2024-03-22T06:11:18;24.25;;;10.43;;
73515;SDS011;61763;51.416;5.442;2024-03-22T06:13:44;25.13;;;10.93;;
73515;SDS011;61763;51.416;5.442;2024-03-22T06:16:09;28.90;;;11.90;;
73515;SDS011;61763;51.416;5.442;2024-03-22T06:18:35;18.38;;;6.93;;
73515;SDS011;61763;51.416;5.442;2024-03-22T06:21:00;27.55;;;10.88;;
73515;SDS011;61763;51.416;5.442;2024-03-22T06:23:26;22.48;;;9.45;;
73515;SDS011;61763;51.416;5.442;2024-03-22T06:25:52;26.45;;;10.20;;
73515;SDS011;61763;51.416;5.442;2024-03-22T06:28:21;26.25;;;11.00;;
73515;SDS011;61763;51.416;5.442;2024-03-22T06:30:46;22.73;;;10.50;;
73515;SDS011;61763;51.416;5.442;2024-03-22T06:33:12;21.52;;;10.25;;
73515;SDS011;61763;51.416;5.442;2024-03-22T06:35:37;24.80;;;10.18;;
73515;SDS011;61763;51.416;5.442;2024-03-22T06:38:03;21.67;;;9.45;;
73515;SDS011;61763;51.416;5.442;2024-03-22T06:40:29;19.75;;;9.07;;
73515;SDS011;61763;51.416;5.442;2024-03-22T06:42:55;22.58;;;9.95;;
73515;SDS011;61763;51.416;5.442;2024-03-22T06:45:20;22.38;;;8.63;;
73515;SDS011;61763;51.416;5.442;2024-03-22T06:47:45;22.05;;;9.15;;
73515;SDS011;61763;51.416;5.442;2024-03-22T06:50:11;19.58;;;8.25;;
73515;SDS011;61763;51.416;5.442;2024-03-22T06:52:36;22.95;;;7.20;;
73515;SDS011;61763;51.416;5.442;2024-03-22T06:55:02;15.40;;;6.32;;
73515;SDS011;61763;51.416;5.442;2024-03-22T06:57:28;20.73;;;9.57;;
73515;SDS011;61763;51.416;5.442;2024-03-22T06:59:54;22.88;;;9.57;;
73515;SDS011;61763;51.416;5.442;2024-03-22T07:02:19;22.10;;;9.77;;
73515;SDS011;61763;51.416;5.442;2024-03-22T07:04:45;22.15;;;8.55;;
73515;SDS011;61763;51.416;5.442;2024-03-22T07:07:11;22.52;;;8.93;;
73515;SDS011;61763;51.416;5.442;2024-03-22T07:09:36;21.20;;;9.13;;
73515;SDS011;61763;51.416;5.442;2024-03-22T07:12:01;18.67;;;8.27;;
73515;SDS011;61763;51.416;5.442;2024-03-22T07:14:27;19.58;;;8.85;;
73515;SDS011;61763;51.416;5.442;2024-03-22T07:16:53;18.08;;;8.82;;
73515;SDS011;61763;51.416;5.442;2024-03-22T07:19:21;19.15;;;9.73;;
73515;SDS011;61763;51.416;5.442;2024-03-22T07:21:46;22.20;;;8.73;;
73515;SDS011;61763;51.416;5.442;2024-03-22T07:24:12;19.83;;;9.05;;
73515;SDS011;61763;51.416;5.442;2024-03-22T07:26:37;17.13;;;7.88;;
73515;SDS011;61763;51.416;5.442;2024-03-22T07:29:03;17.88;;;8.43;;
73515;SDS011;61763;51.416;5.442;2024-03-22T07:31:29;17.92;;;8.90;;
73515;SDS011;61763;51.416;5.442;2024-03-22T07:33:54;17.08;;;8.65;;
73515;SDS011;61763;51.416;5.442;2024-03-22T07:36:20;15.65;;;9.35;;
73515;SDS011;61763;51.416;5.442;2024-03-22T07:38:45;16.10;;;7.43;;
73515;SDS011;61763;51.416;5.442;2024-03-22T07:41:11;15.00;;;7.07;;
73515;SDS011;61763;51.416;5.442;2024-03-22T07:43:36;18.42;;;8.23;;
73515;SDS011;61763;51.416;5.442;2024-03-22T07:46:02;15.43;;;7.43;;
73515;SDS011;61763;51.416;5.442;2024-03-22T07:48:27;9.13;;;4.75;;
73515;SDS011;61763;51.416;5.442;2024-03-22T07:50:59;15.18;;;6.60;;
73515;SDS011;61763;51.416;5.442;2024-03-22T07:53:25;13.32;;;6.95;;
73515;SDS011;61763;51.416;5.442;2024-03-22T07:55:51;14.60;;;6.30;;
73515;SDS011;61763;51.416;5.442;2024-03-22T07:58:16;13.43;;;7.03;;
73515;SDS011;61763;51.416;5.442;2024-03-22T08:00:42;15.80;;;8.00;;
73515;SDS011;61763;51.416;5.442;2024-03-22T08:03:07;15.75;;;6.75;;
73515;SDS011;61763;51.416;5.442;2024-03-22T08:05:38;14.90;;;7.75;;
73515;SDS011;61763;51.416;5.442;2024-03-22T08:08:04;16.13;;;6.50;;
73515;SDS011;61763;51.416;5.442;2024-03-22T08:10:29;15.48;;;7.63;;
73515;SDS011;61763;51.416;5.442;2024-03-22T08:12:54;13.27;;;6.30;;
73515;SDS011;61763;51.416;5.442;2024-03-22T08:15:20;11.82;;;5.85;;
73515;SDS011;61763;51.416;5.442;2024-03-22T08:17:46;13.95;;;5.93;;
73515;SDS011;61763;51.416;5.442;2024-03-22T08:20:11;13.05;;;6.72;;
73515;SDS011;61763;51.416;5.442;2024-03-22T08:22:37;11.25;;;5.20;;
73515;SDS011;61763;51.416;5.442;2024-03-22T08:25:02;13.98;;;5.82;;
73515;SDS011;61763;51.416;5.442;2024-03-22T08:27:29;13.02;;;6.40;;
73515;SDS011;61763;51.416;5.442;2024-03-22T08:29:54;13.75;;;6.50;;
73515;SDS011;61763;51.416;5.442;2024-03-22T08:32:19;12.38;;;4.72;;
73515;SDS011;61763;51.416;5.442;2024-03-22T08:34:45;14.07;;;6.47;;
73515;SDS011;61763;51.416;5.442;2024-03-22T08:37:11;12.48;;;6.15;;
73515;SDS011;61763;51.416;5.442;2024-03-22T08:39:36;10.93;;;5.22;;
73515;SDS011;61763;51.416;5.442;2024-03-22T08:42:01;13.40;;;6.30;;
73515;SDS011;61763;51.416;5.442;2024-03-22T08:44:30;13.73;;;5.43;;
73515;SDS011;61763;51.416;5.442;2024-03-22T08:46:55;11.38;;;5.10;;
73515;SDS011;61763;51.416;5.442;2024-03-22T08:49:20;10.63;;;6.10;;
73515;SDS011;61763;51.416;5.442;2024-03-22T08:51:46;14.05;;;6.50;;
73515;SDS011;61763;51.416;5.442;2024-03-22T08:54:13;9.93;;;5.80;;
73515;SDS011;61763;51.416;5.442;2024-03-22T08:56:38;12.23;;;5.68;;
73515;SDS011;61763;51.416;5.442;2024-03-22T08:59:04;10.63;;;5.88;;
73515;SDS011;61763;51.416;5.442;2024-03-22T09:01:29;10.13;;;4.47;;
73515;SDS011;61763;51.416;5.442;2024-03-22T09:03:54;12.82;;;4.38;;
73515;SDS011;61763;51.416;5.442;2024-03-22T09:06:20;11.85;;;5.00;;
73515;SDS011;61763;51.416;5.442;2024-03-22T09:08:46;9.88;;;4.55;;
73515;SDS011;61763;51.416;5.442;2024-03-22T09:11:11;11.60;;;4.70;;
73515;SDS011;61763;51.416;5.442;2024-03-22T09:13:37;10.68;;;4.63;;
73515;SDS011;61763;51.416;5.442;2024-03-22T09:16:03;10.25;;;5.13;;
73515;SDS011;61763;51.416;5.442;2024-03-22T09:18:28;10.07;;;5.28;;
73515;SDS011;61763;51.416;5.442;2024-03-22T09:20:54;9.85;;;4.22;;
73515;SDS011;61763;51.416;5.442;2024-03-22T09:23:19;8.93;;;4.20;;
73515;SDS011;61763;51.416;5.442;2024-03-22T09:25:45;10.15;;;5.47;;
73515;SDS011;61763;51.416;5.442;2024-03-22T09:28:12;9.70;;;4.30;;
73515;SDS011;61763;51.416;5.442;2024-03-22T09:30:38;10.35;;;4.30;;
73515;SDS011;61763;51.416;5.442;2024-03-22T09:33:05;10.88;;;4.45;;
73515;SDS011;61763;51.416;5.442;2024-03-22T09:35:32;8.90;;;4.18;;
73515;SDS011;61763;51.416;5.442;2024-03-22T09:37:58;9.70;;;4.13;;
73515;SDS011;61763;51.416;5.442;2024-03-22T09:40:24;9.80;;;4.63;;
73515;SDS011;61763;51.416;5.442;2024-03-22T09:42:49;13.35;;;4.75;;
73515;SDS011;61763;51.416;5.442;2024-03-22T09:45:17;9.43;;;3.83;;
73515;SDS011;61763;51.416;5.442;2024-03-22T09:47:45;13.25;;;4.20;;
73515;SDS011;61763;51.416;5.442;2024-03-22T09:50:13;9.13;;;3.58;;
73515;SDS011;61763;51.416;5.442;2024-03-22T09:52:39;8.07;;;4.75;;
73515;SDS011;61763;51.416;5.442;2024-03-22T09:55:07;10.32;;;4.93;;
73515;SDS011;61763;51.416;5.442;2024-03-22T09:57:37;11.77;;;5.45;;
73515;SDS011;61763;51.416;5.442;2024-03-22T10:00:07;12.07;;;4.63;;
73515;SDS011;61763;51.416;5.442;2024-03-22T10:02:33;13.32;;;4.60;;
73515;SDS011;61763;51.416;5.442;2024-03-22T10:04:59;9.35;;;4.38;;
73515;SDS011;61763;51.416;5.442;2024-03-22T10:07:25;8.60;;;5.35;;
73515;SDS011;61763;51.416;5.442;2024-03-22T10:09:53;9.15;;;4.50;;
73515;SDS011;61763;51.416;5.442;2024-03-22T10:12:22;8.98;;;4.30;;
73515;SDS011;61763;51.416;5.442;2024-03-22T10:14:50;11.50;;;4.32;;
73515;SDS011;61763;51.416;5.442;2024-03-22T10:17:17;11.27;;;5.32;;
73515;SDS011;61763;51.416;5.442;2024-03-22T10:19:43;8.45;;;5.03;;
73515;SDS011;61763;51.416;5.442;2024-03-22T10:22:08;10.25;;;4.68;;
73515;SDS011;61763;51.416;5.442;2024-03-22T10:24:33;10.82;;;5.43;;
73515;SDS011;61763;51.416;5.442;2024-03-22T10:26:59;8.80;;;3.88;;
73515;SDS011;61763;51.416;5.442;2024-03-22T10:29:25;11.23;;;5.45;;
73515;SDS011;61763;51.416;5.442;2024-03-22T10:31:54;11.25;;;5.38;;
73515;SDS011;61763;51.416;5.442;2024-03-22T10:34:21;8.52;;;3.97;;
73515;SDS011;61763;51.416;5.442;2024-03-22T10:36:47;11.38;;;5.28;;
73515;SDS011;61763;51.416;5.442;2024-03-22T10:39:15;10.52;;;5.53;;
73515;SDS011;61763;51.416;5.442;2024-03-22T10:41:46;9.63;;;4.55;;
73515;SDS011;61763;51.416;5.442;2024-03-22T10:44:13;11.60;;;5.72;;
73515;SDS011;61763;51.416;5.442;2024-03-22T10:46:39;8.85;;;5.30;;
73515;SDS011;61763;51.416;5.442;2024-03-22T10:49:14;8.60;;;4.53;;
73515;SDS011;61763;51.416;5.442;2024-03-22T10:51:42;10.38;;;5.72;;
73515;SDS011;61763;51.416;5.442;2024-03-22T10:54:11;10.10;;;5.25;;
73515;SDS011;61763;51.416;5.442;2024-03-22T10:56:42;8.23;;;4.25;;
73515;SDS011;61763;51.416;5.442;2024-03-22T10:59:08;10.45;;;4.30;;
73515;SDS011;61763;51.416;5.442;2024-03-22T11:01:33;8.52;;;5.10;;
73515;SDS011;61763;51.416;5.442;2024-03-22T11:04:04;11.43;;;6.22;;
73515;SDS011;61763;51.416;5.442;2024-03-22T11:06:36;11.07;;;4.85;;
73515;SDS011;61763;51.416;5.442;2024-03-22T11:09:02;12.20;;;5.15;;
73515;SDS011;61763;51.416;5.442;2024-03-22T11:11:30;8.63;;;4.22;;
73515;SDS011;61763;51.416;5.442;2024-03-22T11:13:58;12.75;;;5.68;;
73515;SDS011;61763;51.416;5.442;2024-03-22T11:16:23;10.48;;;4.90;;
73515;SDS011;61763;51.416;5.442;2024-03-22T11:18:49;11.30;;;6.20;;
73515;SDS011;61763;51.416;5.442;2024-03-22T11:21:14;12.63;;;5.80;;
73515;SDS011;61763;51.416;5.442;2024-03-22T11:23:40;13.70;;;5.70;;
73515;SDS011;61763;51.416;5.442;2024-03-22T11:26:06;14.40;;;6.78;;
73515;SDS011;61763;51.416;5.442;2024-03-22T11:28:33;12.75;;;7.60;;
73515;SDS011;61763;51.416;5.442;2024-03-22T11:30:58;13.43;;;7.68;;
73515;SDS011;61763;51.416;5.442;2024-03-22T11:33:24;18.67;;;8.10;;
73515;SDS011;61763;51.416;5.442;2024-03-22T11:35:52;17.00;;;8.27;;
73515;SDS011;61763;51.416;5.442;2024-03-22T11:38:17;18.08;;;9.85;;
73515;SDS011;61763;51.416;5.442;2024-03-22T11:40:43;23.35;;;10.38;;
73515;SDS011;61763;51.416;5.442;2024-03-22T11:43:10;18.10;;;9.52;;
73515;SDS011;61763;51.416;5.442;2024-03-22T11:45:36;25.15;;;12.15;;
73515;SDS011;61763;51.416;5.442;2024-03-22T11:48:02;19.67;;;11.18;;
73515;SDS011;61763;51.416;5.442;2024-03-22T11:50:28;20.50;;;10.90;;
73515;SDS011;61763;51.416;5.442;2024-03-22T11:52:54;22.08;;;12.65;;
73515;SDS011;61763;51.416;5.442;2024-03-22T11:55:19;20.77;;;10.77;;
73515;SDS011;61763;51.416;5.442;2024-03-22T11:57:51;20.52;;;11.32;;
73515;SDS011;61763;51.416;5.442;2024-03-22T12:00:17;23.00;;;10.88;;
73515;SDS011;61763;51.416;5.442;2024-03-22T12:02:44;23.45;;;11.20;;
73515;SDS011;61763;51.416;5.442;2024-03-22T12:05:11;20.17;;;10.65;;
73515;SDS011;61763;51.416;5.442;2024-03-22T12:07:36;23.75;;;12.15;;
73515;SDS011;61763;51.416;5.442;2024-03-22T12:10:02;21.33;;;9.93;;
73515;SDS011;61763;51.416;5.442;2024-03-22T12:12:28;21.45;;;11.25;;
73515;SDS011;61763;51.416;5.442;2024-03-22T12:14:54;24.13;;;11.20;;
73515;SDS011;61763;51.416;5.442;2024-03-22T12:17:20;20.35;;;10.52;;
73515;SDS011;61763;51.416;5.442;2024-03-22T12:19:45;23.58;;;12.07;;
73515;SDS011;61763;51.416;5.442;2024-03-22T12:22:10;25.50;;;14.23;;
73515;SDS011;61763;51.416;5.442;2024-03-22T12:24:36;19.67;;;9.38;;
73515;SDS011;61763;51.416;5.442;2024-03-22T12:27:02;22.50;;;12.60;;
73515;SDS011;61763;51.416;5.442;2024-03-22T12:29:27;24.27;;;13.20;;
73515;SDS011;61763;51.416;5.442;2024-03-22T12:31:53;27.35;;;12.95;;
73515;SDS011;61763;51.416;5.442;2024-03-22T12:34:18;22.27;;;13.00;;
73515;SDS011;61763;51.416;5.442;2024-03-22T12:36:43;21.58;;;11.43;;
73515;SDS011;61763;51.416;5.442;2024-03-22T12:39:09;28.02;;;14.25;;
73515;SDS011;61763;51.416;5.442;2024-03-22T12:41:34;21.95;;;12.90;;
73515;SDS011;61763;51.416;5.442;2024-03-22T12:44:00;22.27;;;12.02;;
73515;SDS011;61763;51.416;5.442;2024-03-22T12:46:26;24.48;;;12.95;;
73515;SDS011;61763;51.416;5.442;2024-03-22T12:48:52;26.75;;;12.93;;
73515;SDS011;61763;51.416;5.442;2024-03-22T12:51:18;25.92;;;12.95;;
73515;SDS011;61763;51.416;5.442;2024-03-22T12:53:44;24.60;;;13.60;;
73515;SDS011;61763;51.416;5.442;2024-03-22T12:56:09;28.60;;;14.40;;
73515;SDS011;61763;51.416;5.442;2024-03-22T12:58:36;31.02;;;14.02;;
73515;SDS011;61763;51.416;5.442;2024-03-22T13:01:01;24.08;;;12.32;;
73515;SDS011;61763;51.416;5.442;2024-03-22T13:03:27;31.70;;;16.17;;
73515;SDS011;61763;51.416;5.442;2024-03-22T13:05:53;30.50;;;14.07;;
73515;SDS011;61763;51.416;5.442;2024-03-22T13:08:18;24.55;;;13.57;;
73515;SDS011;61763;51.416;5.442;2024-03-22T13:10:44;23.85;;;12.20;;
73515;SDS011;61763;51.416;5.442;2024-03-22T13:13:10;24.60;;;11.90;;
73515;SDS011;61763;51.416;5.442;2024-03-22T13:15:36;22.75;;;11.90;;
73515;SDS011;61763;51.416;5.442;2024-03-22T13:18:03;18.55;;;8.23;;
73515;SDS011;61763;51.416;5.442;2024-03-22T13:20:28;29.38;;;12.45;;
73515;SDS011;61763;51.416;5.442;2024-03-22T13:22:54;23.02;;;10.82;;
73515;SDS011;61763;51.416;5.442;2024-03-22T13:25:22;20.58;;;10.43;;
73515;SDS011;61763;51.416;5.442;2024-03-22T13:27:48;16.60;;;9.20;;
73515;SDS011;61763;51.416;5.442;2024-03-22T13:30:13;16.75;;;9.10;;
73515;SDS011;61763;51.416;5.442;2024-03-22T13:32:40;18.50;;;9.75;;
73515;SDS011;61763;51.416;5.442;2024-03-22T13:35:06;26.45;;;12.18;;
73515;SDS011;61763;51.416;5.442;2024-03-22T13:37:31;24.67;;;12.38;;
73515;SDS011;61763;51.416;5.442;2024-03-22T13:39:57;25.85;;;13.40;;
73515;SDS011;61763;51.416;5.442;2024-03-22T13:42:22;28.30;;;12.55;;
73515;SDS011;61763;51.416;5.442;2024-03-22T13:44:48;24.50;;;11.43;;
73515;SDS011;61763;51.416;5.442;2024-03-22T13:47:13;24.00;;;10.95;;
73515;SDS011;61763;51.416;5.442;2024-03-22T13:49:39;26.00;;;13.05;;
73515;SDS011;61763;51.416;5.442;2024-03-22T13:52:08;25.48;;;12.35;;
73515;SDS011;61763;51.416;5.442;2024-03-22T13:54:34;26.17;;;12.32;;
73515;SDS011;61763;51.416;5.442;2024-03-22T13:56:59;29.92;;;13.45;;
73515;SDS011;61763;51.416;5.442;2024-03-22T13:59:25;28.10;;;12.20;;
73515;SDS011;61763;51.416;5.442;2024-03-22T14:01:51;26.33;;;11.80;;
73515;SDS011;61763;51.416;5.442;2024-03-22T14:04:17;27.05;;;14.30;;
73515;SDS011;61763;51.416;5.442;2024-03-22T14:06:44;28.05;;;13.93;;
73515;SDS011;61763;51.416;5.442;2024-03-22T14:09:09;29.50;;;13.68;;
73515;SDS011;61763;51.416;5.442;2024-03-22T14:11:37;22.38;;;10.23;;
73515;SDS011;61763;51.416;5.442;2024-03-22T14:14:02;29.45;;;13.75;;
73515;SDS011;61763;51.416;5.442;2024-03-22T14:16:27;25.17;;;11.30;;
73515;SDS011;61763;51.416;5.442;2024-03-22T14:18:53;26.13;;;12.30;;
73515;SDS011;61763;51.416;5.442;2024-03-22T14:21:18;25.17;;;11.90;;
73515;SDS011;61763;51.416;5.442;2024-03-22T14:23:47;28.55;;;12.57;;